sensor_id;sensor_type;location;lat;lon;timestamp;pressure;altitude;pressure_sealevel;temperature;humidity
2397;BME280;1209;48.410;9.054;2023-03-31T00:01:03;95654.00;;;12.65;100.00
2397;BME280;1209;48.410;9.054;2023-03-31T00:03:28;95657.41;;;12.72;100.00
2397;BME280;1209;48.410;9.054;2023-03-31T00:05:55;95657.63;;;12.71;100.00
2397;BME280;1209;48.410;9.054;2023-03-31T00:08:24;95654.59;;;12.74;100.00
2397;BME280;1209;48.410;9.054;2023-03-31T00:10:49;95655.22;;;12.69;100.00
2397;BME280;1209;48.410;9.054;2023-03-31T00:13:15;95648.75;;;12.72;100.00
2397;BME280;1209;48.410;9.054;2023-03-31T00:15:41;95645.13;;;12.73;100.00
2397;BME280;1209;48.410;9.054;2023-03-31T00:18:06;95642.72;;;12.78;100.00
2397;BME280;1209;48.410;9.054;2023-03-31T00:20:31;95639.31;;;12.77;100.00
2397;BME280;1209;48.410;9.054;2023-03-31T00:23:02;95634.06;;;12.84;100.00
2397;BME280;1209;48.410;9.054;2023-03-31T00:25:27;95630.44;;;12.78;100.00
2397;BME280;1209;48.410;9.054;2023-03-31T00:27:53;95624.78;;;12.75;100.00
2397;BME280;1209;48.410;9.054;2023-03-31T00:30:18;95626.59;;;12.81;100.00
2397;BME280;1209;48.410;9.054;2023-03-31T00:32:43;95616.13;;;12.81;100.00
2397;BME280;1209;48.410;9.054;2023-03-31T00:35:09;95616.31;;;12.86;100.00
2397;BME280;1209;48.410;9.054;2023-03-31T00:37:35;95618.31;;;12.90;100.00
2397;BME280;1209;48.410;9.054;2023-03-31T00:40:01;95604.81;;;12.93;100.00
2397;BME280;1209;48.410;9.054;2023-03-31T00:42:30;95598.75;;;12.93;100.00
2397;BME280;1209;48.410;9.054;2023-03-31T00:47:54;95597.53;;;12.96;99.44
2397;BME280;1209;48.410;9.054;2023-03-31T00:50:29;95594.31;;;12.93;99.53
2397;BME280;1209;48.410;9.054;2023-03-31T00:53:10;95596.16;;;12.86;100.00
2397;BME280;1209;48.410;9.054;2023-03-31T00:55:40;95592.75;;;12.79;100.00
2397;BME280;1209;48.410;9.054;2023-03-31T00:58:07;95590.09;;;12.86;100.00
2397;BME280;1209;48.410;9.054;2023-03-31T01:00:38;95592.75;;;12.79;100.00
2397;BME280;1209;48.410;9.054;2023-03-31T01:03:06;95582.84;;;12.75;100.00
2397;BME280;1209;48.410;9.054;2023-03-31T01:05:42;95585.09;;;12.78;100.00
2397;BME280;1209;48.410;9.054;2023-03-31T01:08:09;95587.50;;;12.79;100.00
2397;BME280;1209;48.410;9.054;2023-03-31T01:10:45;95579.22;;;12.76;100.00
2397;BME280;1209;48.410;9.054;2023-03-31T01:13:13;95576.81;;;12.74;100.00
2397;BME280;1209;48.410;9.054;2023-03-31T01:15:39;95578.41;;;12.75;100.00
2397;BME280;1209;48.410;9.054;2023-03-31T01:18:06;95576.81;;;12.74;100.00
2397;BME280;1209;48.410;9.054;2023-03-31T01:23:45;95573.00;;;12.70;100.00
2397;BME280;1209;48.410;9.054;2023-03-31T01:26:39;95573.19;;;12.69;100.00
2397;BME280;1209;48.410;9.054;2023-03-31T01:43:32;95578.28;;;12.37;100.00
2397;BME280;1209;48.410;9.054;2023-03-31T01:51:38;95581.88;;;12.03;100.00
2397;BME280;1209;48.410;9.054;2023-03-31T01:56:42;95601.00;;;11.84;100.00
2397;BME280;1209;48.410;9.054;2023-03-31T01:59:10;95586.81;;;11.65;100.00
2397;BME280;1209;48.410;9.054;2023-03-31T02:01:51;95594.25;;;11.55;100.00
2397;BME280;1209;48.410;9.054;2023-03-31T02:04:22;95581.75;;;11.44;100.00
2397;BME280;1209;48.410;9.054;2023-03-31T02:06:54;95597.50;;;11.16;100.00
2397;BME280;1209;48.410;9.054;2023-03-31T02:09:24;95590.47;;;11.16;100.00
2397;BME280;1209;48.410;9.054;2023-03-31T02:11:52;95588.00;;;11.01;100.00
2397;BME280;1209;48.410;9.054;2023-03-31T02:14:23;95584.00;;;11.06;100.00
2397;BME280;1209;48.410;9.054;2023-03-31T02:16:53;95574.50;;;10.91;100.00
2397;BME280;1209;48.410;9.054;2023-03-31T02:19:25;95553.31;;;10.80;100.00
2397;BME280;1209;48.410;9.054;2023-03-31T02:21:52;95514.88;;;10.67;100.00
2397;BME280;1209;48.410;9.054;2023-03-31T02:24:21;95494.97;;;10.59;100.00
2397;BME280;1209;48.410;9.054;2023-03-31T02:29:17;95478.69;;;10.57;100.00
2397;BME280;1209;48.410;9.054;2023-03-31T02:31:55;95460.59;;;10.56;100.00
2397;BME280;1209;48.410;9.054;2023-03-31T02:34:22;95456.19;;;10.56;100.00
2397;BME280;1209;48.410;9.054;2023-03-31T02:36:48;95445.34;;;10.53;100.00
2397;BME280;1209;48.410;9.054;2023-03-31T02:39:20;95437.91;;;10.50;100.00
2397;BME280;1209;48.410;9.054;2023-03-31T02:41:48;95417.47;;;10.66;100.00
2397;BME280;1209;48.410;9.054;2023-03-31T02:44:14;95395.75;;;10.53;100.00
2397;BME280;1209;48.410;9.054;2023-03-31T02:46:41;95387.28;;;10.44;100.00
2397;BME280;1209;48.410;9.054;2023-03-31T02:49:07;95371.22;;;10.47;100.00
2397;BME280;1209;48.410;9.054;2023-03-31T02:57:37;95356.97;;;10.43;100.00
2397;BME280;1209;48.410;9.054;2023-03-31T03:00:30;95363.53;;;10.39;100.00
2397;BME280;1209;48.410;9.054;2023-03-31T03:14:21;95339.91;;;10.06;100.00
2397;BME280;1209;48.410;9.054;2023-03-31T03:16:55;95318.81;;;10.01;100.00
2397;BME280;1209;48.410;9.054;2023-03-31T03:19:23;95314.47;;;10.15;100.00
2397;BME280;1209;48.410;9.054;2023-03-31T03:21:48;95314.06;;;10.18;100.00
2397;BME280;1209;48.410;9.054;2023-03-31T03:24:14;95296.25;;;10.28;100.00
2397;BME280;1209;48.410;9.054;2023-03-31T03:26:41;95294.06;;;10.25;100.00
2397;BME280;1209;48.410;9.054;2023-03-31T03:29:06;95297.19;;;10.14;100.00
2397;BME280;1209;48.410;9.054;2023-03-31T03:31:32;95294.19;;;10.17;100.00
2397;BME280;1209;48.410;9.054;2023-03-31T03:33:58;95286.63;;;10.28;100.00
2397;BME280;1209;48.410;9.054;2023-03-31T03:36:23;95290.44;;;10.26;100.00
2397;BME280;1209;48.410;9.054;2023-03-31T03:38:48;95286.53;;;10.08;100.00
2397;BME280;1209;48.410;9.054;2023-03-31T03:41:14;95273.50;;;10.08;100.00
2397;BME280;1209;48.410;9.054;2023-03-31T03:43:39;95264.09;;;10.14;100.00
2397;BME280;1209;48.410;9.054;2023-03-31T03:46:04;95254.22;;;9.96;100.00
2397;BME280;1209;48.410;9.054;2023-03-31T03:48:29;95238.56;;;9.96;100.00
2397;BME280;1209;48.410;9.054;2023-03-31T03:50:55;95238.59;;;10.09;100.00
2397;BME280;1209;48.410;9.054;2023-03-31T03:53:23;95230.56;;;10.11;100.00
2397;BME280;1209;48.410;9.054;2023-03-31T03:55:48;95225.72;;;10.01;100.00
2397;BME280;1209;48.410;9.054;2023-03-31T03:58:15;95225.16;;;10.06;100.00
2397;BME280;1209;48.410;9.054;2023-03-31T04:00:41;95224.34;;;10.05;100.00
2397;BME280;1209;48.410;9.054;2023-03-31T04:03:06;95213.53;;;10.15;100.00
2397;BME280;1209;48.410;9.054;2023-03-31T04:05:32;95200.13;;;10.25;100.00
2397;BME280;1209;48.410;9.054;2023-03-31T04:07:58;95188.06;;;10.30;100.00
2397;BME280;1209;48.410;9.054;2023-03-31T04:10:23;95168.41;;;10.34;100.00
2397;BME280;1209;48.410;9.054;2023-03-31T04:12:48;95164.63;;;10.44;100.00
2397;BME280;1209;48.410;9.054;2023-03-31T04:15:14;95141.13;;;10.50;100.00
2397;BME280;1209;48.410;9.054;2023-03-31T04:17:39;95126.84;;;10.66;100.00
2397;BME280;1209;48.410;9.054;2023-03-31T04:20:07;95122.84;;;10.63;100.00
2397;BME280;1209;48.410;9.054;2023-03-31T04:22:36;95118.19;;;10.72;100.00
2397;BME280;1209;48.410;9.054;2023-03-31T04:25:07;95115.56;;;10.98;100.00
2397;BME280;1209;48.410;9.054;2023-03-31T04:27:34;95126.19;;;11.03;100.00
2397;BME280;1209;48.410;9.054;2023-03-31T04:30:00;95114.53;;;11.06;100.00
2397;BME280;1209;48.410;9.054;2023-03-31T04:32:25;95118.75;;;11.00;100.00
2397;BME280;1209;48.410;9.054;2023-03-31T04:34:50;95127.22;;;10.96;100.00
2397;BME280;1209;48.410;9.054;2023-03-31T04:37:16;95122.78;;;11.03;100.00
2397;BME280;1209;48.410;9.054;2023-03-31T04:39:41;95125.81;;;10.93;100.00
2397;BME280;1209;48.410;9.054;2023-03-31T04:42:10;95128.41;;;11.00;100.00
2397;BME280;1209;48.410;9.054;2023-03-31T04:44:36;95131.03;;;11.00;100.00
2397;BME280;1209;48.410;9.054;2023-03-31T04:47:01;95134.06;;;10.90;100.00
2397;BME280;1209;48.410;9.054;2023-03-31T04:49:27;95133.44;;;10.95;100.00
2397;BME280;1209;48.410;9.054;2023-03-31T04:51:52;95143.72;;;10.90;100.00
2397;BME280;1209;48.410;9.054;2023-03-31T04:54:17;95145.50;;;10.83;100.00
2397;BME280;1209;48.410;9.054;2023-03-31T04:56:43;95144.91;;;10.74;100.00
2397;BME280;1209;48.410;9.054;2023-03-31T04:59:08;95145.31;;;10.71;100.00
2397;BME280;1209;48.410;9.054;2023-03-31T05:01:33;95139.91;;;10.72;100.00
2397;BME280;1209;48.410;9.054;2023-03-31T05:04:00;95122.44;;;10.66;100.00
2397;BME280;1209;48.410;9.054;2023-03-31T05:06:26;95125.03;;;10.66;100.00
2397;BME280;1209;48.410;9.054;2023-03-31T05:08:51;95128.66;;;10.59;100.00
2397;BME280;1209;48.410;9.054;2023-03-31T05:11:16;95143.72;;;10.57;100.00
2397;BME280;1209;48.410;9.054;2023-03-31T05:13:42;95121.47;;;10.48;100.00
2397;BME280;1209;48.410;9.054;2023-03-31T05:16:09;95124.06;;;10.41;100.00
2397;BME280;1209;48.410;9.054;2023-03-31T05:18:36;95126.88;;;10.59;100.00
2397;BME280;1209;48.410;9.054;2023-03-31T05:21:28;95120.22;;;10.63;100.00
2397;BME280;1209;48.410;9.054;2023-03-31T05:23:55;95113.81;;;10.59;100.00
2397;BME280;1209;48.410;9.054;2023-03-31T05:26:20;95108.00;;;10.51;100.00
2397;BME280;1209;48.410;9.054;2023-03-31T05:28:49;95097.56;;;10.44;100.00
2397;BME280;1209;48.410;9.054;2023-03-31T05:31:14;95119.25;;;10.51;100.00
2397;BME280;1209;48.410;9.054;2023-03-31T05:33:39;95116.44;;;10.46;100.00
2397;BME280;1209;48.410;9.054;2023-03-31T05:36:10;95109.63;;;10.45;100.00
2397;BME280;1209;48.410;9.054;2023-03-31T05:38:36;95099.34;;;10.37;100.00
2397;BME280;1209;48.410;9.054;2023-03-31T05:41:02;95101.16;;;10.56;100.00
2397;BME280;1209;48.410;9.054;2023-03-31T05:43:27;95115.03;;;10.50;100.00
2397;BME280;1209;48.410;9.054;2023-03-31T05:45:53;95099.38;;;10.24;100.00
2397;BME280;1209;48.410;9.054;2023-03-31T05:48:18;95093.16;;;10.25;100.00
2397;BME280;1209;48.410;9.054;2023-03-31T05:50:44;95087.13;;;10.24;100.00
2397;BME280;1209;48.410;9.054;2023-03-31T05:53:09;95078.09;;;10.27;100.00
2397;BME280;1209;48.410;9.054;2023-03-31T05:55:36;95067.66;;;10.20;100.00
2397;BME280;1209;48.410;9.054;2023-03-31T05:58:01;95051.41;;;10.25;100.00
2397;BME280;1209;48.410;9.054;2023-03-31T06:00:27;95062.44;;;10.47;100.00
2397;BME280;1209;48.410;9.054;2023-03-31T06:02:52;95053.41;;;10.49;100.00
2397;BME280;1209;48.410;9.054;2023-03-31T06:05:17;95055.38;;;10.60;100.00
2397;BME280;1209;48.410;9.054;2023-03-31T06:07:43;95041.31;;;10.61;100.00
2397;BME280;1209;48.410;9.054;2023-03-31T06:10:08;95033.47;;;10.61;100.00
2397;BME280;1209;48.410;9.054;2023-03-31T06:12:34;95036.09;;;10.61;100.00
2397;BME280;1209;48.410;9.054;2023-03-31T06:15:00;95031.66;;;10.62;100.00
2397;BME280;1209;48.410;9.054;2023-03-31T06:17:26;95045.72;;;10.61;100.00
2397;BME280;1209;48.410;9.054;2023-03-31T06:19:51;95053.78;;;10.59;100.00
2397;BME280;1209;48.410;9.054;2023-03-31T06:22:17;95031.06;;;10.66;100.00
2397;BME280;1209;48.410;9.054;2023-03-31T06:24:42;95010.59;;;10.57;100.00
2397;BME280;1209;48.410;9.054;2023-03-31T06:27:07;94999.97;;;10.58;100.00
2397;BME280;1209;48.410;9.054;2023-03-31T06:29:32;94975.28;;;10.48;100.00
2397;BME280;1209;48.410;9.054;2023-03-31T06:31:58;94973.22;;;10.63;100.00
2397;BME280;1209;48.410;9.054;2023-03-31T06:34:23;94968.63;;;10.58;100.00
2397;BME280;1209;48.410;9.054;2023-03-31T06:36:48;94969.81;;;10.62;100.00
2397;BME280;1209;48.410;9.054;2023-03-31T06:39:14;94966.63;;;10.60;100.00
2397;BME280;1209;48.410;9.054;2023-03-31T06:41:39;94984.88;;;10.67;100.00
2397;BME280;1209;48.410;9.054;2023-03-31T06:44:04;95017.81;;;10.61;100.00
2397;BME280;1209;48.410;9.054;2023-03-31T06:46:30;95039.09;;;10.65;100.00
2397;BME280;1209;48.410;9.054;2023-03-31T06:48:55;95063.19;;;10.60;100.00
2397;BME280;1209;48.410;9.054;2023-03-31T06:51:20;95121.84;;;10.38;100.00
2397;BME280;1209;48.410;9.054;2023-03-31T06:53:46;95160.53;;;10.08;100.00
2397;BME280;1209;48.410;9.054;2023-03-31T06:56:11;95147.81;;;9.65;100.00
2397;BME280;1209;48.410;9.054;2023-03-31T06:58:36;95177.44;;;9.58;100.00
2397;BME280;1209;48.410;9.054;2023-03-31T07:01:03;95174.44;;;9.54;100.00
2397;BME280;1209;48.410;9.054;2023-03-31T07:03:29;95183.84;;;9.55;100.00
2397;BME280;1209;48.410;9.054;2023-03-31T07:05:55;95204.50;;;9.50;100.00
2397;BME280;1209;48.410;9.054;2023-03-31T07:08:21;95220.06;;;9.43;100.00
2397;BME280;1209;48.410;9.054;2023-03-31T07:10:48;95236.69;;;9.42;100.00
2397;BME280;1209;48.410;9.054;2023-03-31T07:13:15;95268.16;;;9.41;100.00
2397;BME280;1209;48.410;9.054;2023-03-31T07:15:41;95198.34;;;9.30;100.00
2397;BME280;1209;48.410;9.054;2023-03-31T07:18:07;95152.88;;;9.32;100.00
2397;BME280;1209;48.410;9.054;2023-03-31T07:20:33;95184.75;;;9.34;100.00
2397;BME280;1209;48.410;9.054;2023-03-31T07:23:02;95180.38;;;9.41;100.00
2397;BME280;1209;48.410;9.054;2023-03-31T07:25:28;95171.72;;;9.34;100.00
2397;BME280;1209;48.410;9.054;2023-03-31T07:27:53;95174.56;;;9.39;100.00
2397;BME280;1209;48.410;9.054;2023-03-31T07:30:19;95156.13;;;9.41;100.00
2397;BME280;1209;48.410;9.054;2023-03-31T07:32:46;95156.16;;;9.48;100.00
2397;BME280;1209;48.410;9.054;2023-03-31T07:35:11;95147.09;;;9.43;100.00
2397;BME280;1209;48.410;9.054;2023-03-31T07:37:38;95122.31;;;9.54;100.00
2397;BME280;1209;48.410;9.054;2023-03-31T07:40:05;95113.69;;;9.60;100.00
2397;BME280;1209;48.410;9.054;2023-03-31T07:42:32;95099.47;;;9.69;100.00
2397;BME280;1209;48.410;9.054;2023-03-31T07:44:57;95083.06;;;9.82;100.00
2397;BME280;1209;48.410;9.054;2023-03-31T07:47:23;95069.22;;;9.88;100.00
2397;BME280;1209;48.410;9.054;2023-03-31T07:49:49;95078.44;;;9.91;100.00
2397;BME280;1209;48.410;9.054;2023-03-31T07:52:14;95067.25;;;9.97;100.00
2397;BME280;1209;48.410;9.054;2023-03-31T07:54:40;95066.63;;;10.08;100.00
2397;BME280;1209;48.410;9.054;2023-03-31T07:57:05;95066.03;;;10.13;100.00
2397;BME280;1209;48.410;9.054;2023-03-31T07:59:32;95058.84;;;10.21;100.00
2397;BME280;1209;48.410;9.054;2023-03-31T08:01:57;95062.59;;;10.65;100.00
2397;BME280;1209;48.410;9.054;2023-03-31T08:04:23;95058.31;;;10.90;100.00
2397;BME280;1209;48.410;9.054;2023-03-31T08:06:48;95057.25;;;11.04;100.00
2397;BME280;1209;48.410;9.054;2023-03-31T08:09:16;95054.72;;;11.36;100.00
2397;BME280;1209;48.410;9.054;2023-03-31T08:11:42;95055.97;;;11.58;100.00
2397;BME280;1209;48.410;9.054;2023-03-31T08:14:08;95055.97;;;11.58;100.00
2397;BME280;1209;48.410;9.054;2023-03-31T08:16:33;95055.81;;;11.91;100.00
2397;BME280;1209;48.410;9.054;2023-03-31T08:18:58;95055.81;;;12.16;100.00
2397;BME280;1209;48.410;9.054;2023-03-31T08:21:24;95055.72;;;12.05;100.00
2397;BME280;1209;48.410;9.054;2023-03-31T08:23:53;95048.03;;;12.35;100.00
2397;BME280;1209;48.410;9.054;2023-03-31T08:26:18;95043.84;;;12.27;100.00
2397;BME280;1209;48.410;9.054;2023-03-31T08:28:45;95039.97;;;12.54;100.00
2397;BME280;1209;48.410;9.054;2023-03-31T08:31:10;95044.94;;;12.81;100.00
2397;BME280;1209;48.410;9.054;2023-03-31T08:33:36;95042.03;;;12.89;100.00
2397;BME280;1209;48.410;9.054;2023-03-31T08:36:06;95049.97;;;13.19;100.00
2397;BME280;1209;48.410;9.054;2023-03-31T08:38:35;95050.63;;;13.33;100.00
2397;BME280;1209;48.410;9.054;2023-03-31T08:41:03;95045.13;;;13.64;100.00
2397;BME280;1209;48.410;9.054;2023-03-31T08:43:32;95039.50;;;13.79;100.00
2397;BME280;1209;48.410;9.054;2023-03-31T08:46:00;95044.44;;;13.99;100.00
2397;BME280;1209;48.410;9.054;2023-03-31T08:48:33;95056.06;;;13.91;100.00
2397;BME280;1209;48.410;9.054;2023-03-31T08:51:05;95047.69;;;14.36;100.00
2397;BME280;1209;48.410;9.054;2023-03-31T08:53:36;95056.66;;;14.05;100.00
2397;BME280;1209;48.410;9.054;2023-03-31T08:56:05;95052.63;;;13.91;100.00
2397;BME280;1209;48.410;9.054;2023-03-31T08:58:44;95044.59;;;14.39;100.00
2397;BME280;1209;48.410;9.054;2023-03-31T09:04:26;95037.44;;;14.69;100.00
2397;BME280;1209;48.410;9.054;2023-03-31T09:12:22;95035.88;;;13.92;100.00
2397;BME280;1209;48.410;9.054;2023-03-31T09:14:56;95049.47;;;14.00;100.00
2397;BME280;1209;48.410;9.054;2023-03-31T09:17:28;95043.56;;;14.28;100.00
2397;BME280;1209;48.410;9.054;2023-03-31T09:19:58;95044.84;;;14.61;100.00
2397;BME280;1209;48.410;9.054;2023-03-31T09:22:38;95026.84;;;15.04;100.00
2397;BME280;1209;48.410;9.054;2023-03-31T09:25:22;95031.41;;;15.09;100.00
2397;BME280;1209;48.410;9.054;2023-03-31T09:27:51;95031.78;;;15.01;100.00
2397;BME280;1209;48.410;9.054;2023-03-31T09:30:23;95030.84;;;15.19;100.00
2397;BME280;1209;48.410;9.054;2023-03-31T09:33:11;95025.91;;;15.51;97.38
2397;BME280;1209;48.410;9.054;2023-03-31T09:35:38;95025.66;;;15.52;98.33
2397;BME280;1209;48.410;9.054;2023-03-31T09:38:04;95015.50;;;15.44;98.38
2397;BME280;1209;48.410;9.054;2023-03-31T09:40:29;95019.91;;;15.55;99.71
2397;BME280;1209;48.410;9.054;2023-03-31T09:43:04;95021.44;;;15.80;96.35
2397;BME280;1209;48.410;9.054;2023-03-31T09:45:30;95001.66;;;15.77;96.56
2397;BME280;1209;48.410;9.054;2023-03-31T09:48:00;94996.75;;;16.14;97.80
2397;BME280;1209;48.410;9.054;2023-03-31T09:50:29;94973.97;;;16.25;97.84
2397;BME280;1209;48.410;9.054;2023-03-31T09:52:56;94969.53;;;16.47;95.44
2397;BME280;1209;48.410;9.054;2023-03-31T09:55:42;94955.38;;;16.53;89.81
2397;BME280;1209;48.410;9.054;2023-03-31T09:58:15;94969.78;;;16.46;82.10
2397;BME280;1209;48.410;9.054;2023-03-31T10:00:43;94956.06;;;16.82;83.59
2397;BME280;1209;48.410;9.054;2023-03-31T10:03:20;94953.91;;;16.79;77.20
2397;BME280;1209;48.410;9.054;2023-03-31T10:05:50;94960.16;;;17.17;76.45
2397;BME280;1209;48.410;9.054;2023-03-31T10:10:56;94944.09;;;16.36;74.36
2397;BME280;1209;48.410;9.054;2023-03-31T10:13:28;94956.50;;;16.19;75.42
2397;BME280;1209;48.410;9.054;2023-03-31T10:16:02;94948.25;;;16.32;75.24
2397;BME280;1209;48.410;9.054;2023-03-31T10:18:36;94918.72;;;16.30;72.79
2397;BME280;1209;48.410;9.054;2023-03-31T10:21:04;94932.56;;;16.03;73.37
2397;BME280;1209;48.410;9.054;2023-03-31T10:23:33;94915.34;;;16.13;75.13
2397;BME280;1209;48.410;9.054;2023-03-31T10:25:59;94904.94;;;16.06;73.64
2397;BME280;1209;48.410;9.054;2023-03-31T10:28:30;94910.44;;;16.43;76.89
2397;BME280;1209;48.410;9.054;2023-03-31T10:30:58;94895.22;;;15.90;76.45
2397;BME280;1209;48.410;9.054;2023-03-31T10:33:26;94899.34;;;16.41;75.46
2397;BME280;1209;48.410;9.054;2023-03-31T10:35:57;94871.72;;;16.22;68.71
2397;BME280;1209;48.410;9.054;2023-03-31T10:38:28;94888.81;;;16.41;71.93
2397;BME280;1209;48.410;9.054;2023-03-31T10:40:58;94874.47;;;16.54;72.37
2397;BME280;1209;48.410;9.054;2023-03-31T10:43:26;94878.44;;;16.73;70.95
2397;BME280;1209;48.410;9.054;2023-03-31T10:45:58;94877.00;;;16.44;69.10
2397;BME280;1209;48.410;9.054;2023-03-31T10:48:34;94852.13;;;16.56;65.87
2397;BME280;1209;48.410;9.054;2023-03-31T10:51:09;94869.81;;;16.17;66.91
2397;BME280;1209;48.410;9.054;2023-03-31T10:53:40;94859.09;;;16.46;68.02
2397;BME280;1209;48.410;9.054;2023-03-31T10:56:27;94885.56;;;15.95;67.44
2397;BME280;1209;48.410;9.054;2023-03-31T11:24:03;95077.63;;;10.76;100.00
2397;BME280;1209;48.410;9.054;2023-03-31T11:29:41;95056.75;;;9.51;100.00
2397;BME280;1209;48.410;9.054;2023-03-31T11:38:04;95105.41;;;8.96;100.00
2397;BME280;1209;48.410;9.054;2023-03-31T11:40:59;95118.41;;;8.89;100.00
2397;BME280;1209;48.410;9.054;2023-03-31T11:43:32;95115.22;;;8.94;100.00
2397;BME280;1209;48.410;9.054;2023-03-31T11:46:02;95103.97;;;8.87;100.00
2397;BME280;1209;48.410;9.054;2023-03-31T11:48:36;95101.81;;;8.97;100.00
2397;BME280;1209;48.410;9.054;2023-03-31T11:51:06;95093.22;;;8.96;100.00
2397;BME280;1209;48.410;9.054;2023-03-31T11:53:37;95076.44;;;9.05;100.00
2397;BME280;1209;48.410;9.054;2023-03-31T11:56:05;95079.88;;;9.12;100.00
2397;BME280;1209;48.410;9.054;2023-03-31T11:58:37;95066.22;;;9.04;100.00
2397;BME280;1209;48.410;9.054;2023-03-31T12:03:53;95081.00;;;8.97;100.00
2397;BME280;1209;48.410;9.054;2023-03-31T12:06:22;95064.56;;;8.96;100.00
2397;BME280;1209;48.410;9.054;2023-03-31T12:09:12;95045.13;;;8.92;100.00
2397;BME280;1209;48.410;9.054;2023-03-31T12:11:51;95018.88;;;8.87;100.00
2397;BME280;1209;48.410;9.054;2023-03-31T12:14:30;95008.56;;;9.13;100.00
2397;BME280;1209;48.410;9.054;2023-03-31T12:17:03;94973.31;;;9.24;100.00
2397;BME280;1209;48.410;9.054;2023-03-31T12:19:41;94965.56;;;9.51;100.00
2397;BME280;1209;48.410;9.054;2023-03-31T12:22:10;94967.34;;;9.83;100.00
2397;BME280;1209;48.410;9.054;2023-03-31T12:24:37;94961.28;;;10.29;100.00
2397;BME280;1209;48.410;9.054;2023-03-31T12:27:16;94964.78;;;10.67;100.00
2397;BME280;1209;48.410;9.054;2023-03-31T12:30:04;94956.47;;;10.90;100.00
2397;BME280;1209;48.410;9.054;2023-03-31T12:32:37;94946.34;;;11.32;100.00
2397;BME280;1209;48.410;9.054;2023-03-31T12:35:15;94930.25;;;11.35;100.00
2397;BME280;1209;48.410;9.054;2023-03-31T12:38:12;94927.34;;;11.18;100.00
2397;BME280;1209;48.410;9.054;2023-03-31T12:41:02;94925.09;;;11.53;100.00
2397;BME280;1209;48.410;9.054;2023-03-31T12:43:55;94923.88;;;11.81;100.00
2397;BME280;1209;48.410;9.054;2023-03-31T12:49:11;94901.69;;;12.45;100.00
2397;BME280;1209;48.410;9.054;2023-03-31T12:57:04;94882.94;;;13.38;100.00
2397;BME280;1209;48.410;9.054;2023-03-31T12:59:43;94875.06;;;13.61;100.00
2397;BME280;1209;48.410;9.054;2023-03-31T13:04:35;94869.38;;;14.63;100.00
2397;BME280;1209;48.410;9.054;2023-03-31T13:07:02;94870.94;;;14.75;100.00
2397;BME280;1209;48.410;9.054;2023-03-31T13:09:40;94856.88;;;14.18;100.00
2397;BME280;1209;48.410;9.054;2023-03-31T13:12:08;94855.34;;;13.94;100.00
2397;BME280;1209;48.410;9.054;2023-03-31T13:14:38;94848.97;;;14.53;100.00
2397;BME280;1209;48.410;9.054;2023-03-31T13:17:26;94862.06;;;14.93;95.38
2397;BME280;1209;48.410;9.054;2023-03-31T13:19:56;94855.97;;;14.76;93.23
2397;BME280;1209;48.410;9.054;2023-03-31T13:22:42;94862.38;;;14.97;91.12
2397;BME280;1209;48.410;9.054;2023-03-31T13:27:54;94862.28;;;14.92;93.44
2397;BME280;1209;48.410;9.054;2023-03-31T13:33:07;94882.94;;;13.61;85.52
2397;BME280;1209;48.410;9.054;2023-03-31T13:35:36;94870.50;;;13.33;87.54
2397;BME280;1209;48.410;9.054;2023-03-31T13:41:04;94890.09;;;13.01;97.44
2397;BME280;1209;48.410;9.054;2023-03-31T13:43:52;94901.81;;;12.98;100.00
2397;BME280;1209;48.410;9.054;2023-03-31T13:46:50;94906.66;;;12.83;100.00
2397;BME280;1209;48.410;9.054;2023-03-31T13:52:10;94944.88;;;12.17;100.00
2397;BME280;1209;48.410;9.054;2023-03-31T13:57:39;94964.84;;;11.30;100.00
2397;BME280;1209;48.410;9.054;2023-03-31T14:03:36;94943.50;;;11.40;100.00
2397;BME280;1209;48.410;9.054;2023-03-31T14:08:51;94941.22;;;11.50;100.00
2397;BME280;1209;48.410;9.054;2023-03-31T14:11:22;94943.78;;;11.25;100.00
2397;BME280;1209;48.410;9.054;2023-03-31T14:14:04;94940.13;;;11.01;100.00
2397;BME280;1209;48.410;9.054;2023-03-31T14:16:34;94950.06;;;11.18;100.00
2397;BME280;1209;48.410;9.054;2023-03-31T14:19:16;94948.88;;;11.14;100.00
2397;BME280;1209;48.410;9.054;2023-03-31T14:21:49;94928.91;;;10.94;100.00
2397;BME280;1209;48.410;9.054;2023-03-31T14:24:28;94925.03;;;10.65;100.00
2397;BME280;1209;48.410;9.054;2023-03-31T14:27:10;94921.22;;;10.61;100.00
2397;BME280;1209;48.410;9.054;2023-03-31T14:32:38;94914.41;;;10.60;100.00
2397;BME280;1209;48.410;9.054;2023-03-31T14:35:25;94921.13;;;10.30;100.00
2397;BME280;1209;48.410;9.054;2023-03-31T14:37:53;94925.94;;;10.20;100.00
2397;BME280;1209;48.410;9.054;2023-03-31T14:40:20;94923.41;;;10.00;100.00
2397;BME280;1209;48.410;9.054;2023-03-31T14:42:46;94918.78;;;9.89;100.00
2397;BME280;1209;48.410;9.054;2023-03-31T14:45:25;94906.34;;;9.97;100.00
2397;BME280;1209;48.410;9.054;2023-03-31T14:48:01;94887.66;;;10.07;100.00
2397;BME280;1209;48.410;9.054;2023-03-31T14:50:33;94877.25;;;10.07;100.00
2397;BME280;1209;48.410;9.054;2023-03-31T14:52:58;94880.50;;;9.96;100.00
2397;BME280;1209;48.410;9.054;2023-03-31T14:55:27;94868.03;;;9.98;100.00
2397;BME280;1209;48.410;9.054;2023-03-31T14:57:56;94878.84;;;10.08;100.00
2397;BME280;1209;48.410;9.054;2023-03-31T15:00:26;94851.59;;;9.97;100.00
2397;BME280;1209;48.410;9.054;2023-03-31T15:02:52;94848.78;;;9.92;100.00
2397;BME280;1209;48.410;9.054;2023-03-31T15:05:30;94839.56;;;9.96;100.00
2397;BME280;1209;48.410;9.054;2023-03-31T15:08:25;94838.06;;;10.27;100.00
2397;BME280;1209;48.410;9.054;2023-03-31T15:10:54;94838.75;;;10.54;100.00
2397;BME280;1209;48.410;9.054;2023-03-31T15:16:43;94824.91;;;11.10;100.00
2397;BME280;1209;48.410;9.054;2023-03-31T15:19:35;94847.59;;;10.84;100.00
2397;BME280;1209;48.410;9.054;2023-03-31T15:22:13;94846.03;;;11.08;100.00
2397;BME280;1209;48.410;9.054;2023-03-31T15:24:40;94857.91;;;11.04;100.00
2397;BME280;1209;48.410;9.054;2023-03-31T15:27:09;94854.72;;;11.02;100.00
2397;BME280;1209;48.410;9.054;2023-03-31T15:32:13;94876.19;;;11.04;100.00
2397;BME280;1209;48.410;9.054;2023-03-31T15:34:41;94867.41;;;10.98;100.00
2397;BME280;1209;48.410;9.054;2023-03-31T15:37:08;94867.13;;;11.07;100.00
2397;BME280;1209;48.410;9.054;2023-03-31T15:39:36;94865.31;;;11.07;100.00
2397;BME280;1209;48.410;9.054;2023-03-31T15:42:06;94874.28;;;10.93;100.00
2397;BME280;1209;48.410;9.054;2023-03-31T15:44:44;94881.72;;;10.89;100.00